Time;durP1;ratioP1;P1;durP2;ratioP2;P2;SDS_P1;SDS_P2;PMS_P1;PMS_P2;Temp;Humidity;BMP_temperature;BMP_pressure;BME280_temperature;BME280_humidity;BME280_pressure;Samples;Min_cycle;Max_cycle;Signal;HPM_P1;HPM_P2
2023/01/12 00:01:20;;;;;;;6.10;2.00;;;;;;;7.01;100.00;100952.13;4920854;29;20284;-92
2023/01/12 00:03:46;;;;;;;6.05;2.00;;;;;;;7.04;100.00;100949.56;4920541;29;20164;-92
2023/01/12 00:06:11;;;;;;;6.40;1.93;;;;;;;7.06;100.00;100948.69;4920650;29;20028;-91
2023/01/12 00:08:37;;;;;;;8.60;1.93;;;;;;;7.09;100.00;100955.59;4921239;29;20031;-92
2023/01/12 00:11:03;;;;;;;10.33;2.47;;;;;;;7.11;100.00;100956.44;4920552;29;20400;-92
2023/01/12 00:13:29;;;;;;;7.07;2.00;;;;;;;7.14;100.00;100945.28;4920436;29;20028;-93
2023/01/12 00:18:42;;;;;;;6.72;1.95;;;;;;;7.15;100.00;100939.25;4920581;29;20363;-93
2023/01/12 00:21:07;;;;;;;5.50;2.00;;;;;;;7.16;100.00;100944.41;4920513;29;20036;-92
2023/01/12 00:23:33;;;;;;;8.15;2.33;;;;;;;7.20;100.00;100942.69;4920327;29;20072;-92
2023/01/12 00:25:58;;;;;;;5.15;1.67;;;;;;;7.19;100.00;100944.41;4920887;29;20026;-93
2023/01/12 00:28:30;;;;;;;7.45;1.88;;;;;;;7.20;100.00;100943.56;4920695;29;20055;-93
2023/01/12 00:31:17;;;;;;;5.28;2.00;;;;;;;7.25;100.00;100940.97;4920401;29;20524;-92
2023/01/12 00:33:42;;;;;;;9.10;2.00;;;;;;;7.20;100.00;100930.66;4920210;29;20027;-92
2023/01/12 00:36:12;;;;;;;6.50;2.10;;;;;;;7.21;100.00;100919.44;4920163;29;20036;-93
2023/01/12 00:38:38;;;;;;;8.02;2.00;;;;;;;7.23;100.00;100917.72;4919892;29;20560;-93
2023/01/12 00:46:50;;;;;;;6.97;2.05;;;;;;;7.29;100.00;100906.53;4920865;29;20035;-92
2023/01/12 00:49:15;;;;;;;7.43;2.17;;;;;;;7.30;100.00;100907.41;4920080;29;20456;-92
2023/01/12 00:51:41;;;;;;;9.13;2.45;;;;;;;7.31;100.00;100906.56;4920886;29;20028;-94
2023/01/12 00:54:07;;;;;;;8.55;2.70;;;;;;;7.30;100.00;100904.81;4919451;29;20083;-88
2023/01/12 00:56:33;;;;;;;9.35;2.22;;;;;;;7.31;100.00;100903.97;4920202;29;20056;-90
2023/01/12 00:58:59;;;;;;;7.85;2.28;;;;;;;7.32;100.00;100893.63;4919549;29;20067;-90
2023/01/12 01:01:24;;;;;;;5.40;1.80;;;;;;;7.31;100.00;100891.91;4919771;29;20048;-90
2023/01/12 01:03:49;;;;;;;8.07;2.38;;;;;;;7.30;100.00;100884.19;4920345;29;20529;-90
2023/01/12 01:06:16;;;;;;;5.93;2.00;;;;;;;7.30;100.00;100885.03;4919806;29;20020;-91
2023/01/12 01:09:03;;;;;;;7.47;2.00;;;;;;;7.31;100.00;100875.56;4919468;29;20032;-91
2023/01/12 01:11:29;;;;;;;9.23;2.63;;;;;;;7.29;100.00;100864.38;4920003;29;20024;-91
2023/01/12 01:14:04;;;;;;;4.70;2.07;;;;;;;7.31;100.00;100867.81;4919885;29;20032;-91
2023/01/12 01:16:30;;;;;;;7.57;2.20;;;;;;;7.33;100.00;100871.25;4920034;29;20024;-90
2023/01/12 01:18:59;;;;;;;9.27;2.20;;;;;;;7.34;100.00;100860.94;4919533;29;20080;-91
2023/01/12 01:21:34;;;;;;;8.57;2.50;;;;;;;7.34;100.00;100858.34;4919881;29;20032;-92
2023/01/12 01:23:59;;;;;;;8.25;2.50;;;;;;;7.33;100.00;100863.50;4930214;29;20043;-91
2023/01/12 01:26:25;;;;;;;9.13;2.53;;;;;;;7.36;100.00;100848.88;4910813;29;20021;-91
2023/01/12 01:28:51;;;;;;;7.47;2.60;;;;;;;7.34;100.00;100853.19;4919455;29;20506;-90
2023/01/12 01:31:20;;;;;;;8.60;2.40;;;;;;;7.36;100.00;100859.22;4919317;29;20035;-90
2023/01/12 01:33:46;;;;;;;7.03;2.47;;;;;;;7.32;100.00;100848.91;4919781;29;20029;-91
2023/01/12 01:36:16;;;;;;;9.93;2.27;;;;;;;7.32;100.00;100856.63;4919319;29;20026;-91
2023/01/12 01:38:44;;;;;;;10.23;2.58;;;;;;;7.30;100.00;100837.72;4918939;29;20026;-91
2023/01/12 01:41:16;;;;;;;10.15;2.55;;;;;;;7.31;100.00;100849.75;4919057;29;20032;-90
2023/01/12 01:43:52;;;;;;;8.20;2.50;;;;;;;7.36;100.00;100853.16;4919250;29;20109;-89
2023/01/12 01:46:42;;;;;;;11.27;2.85;;;;;;;7.34;100.00;100855.78;4919049;29;20035;-90
2023/01/12 01:49:35;;;;;;;8.25;2.40;;;;;;;7.35;100.00;100846.28;4918886;29;20036;-89
2023/01/12 01:52:35;;;;;;;9.10;2.50;;;;;;;7.36;100.00;100838.56;4919235;29;20075;-90
2023/01/12 01:55:07;;;;;;;8.40;2.42;;;;;;;7.35;100.00;100834.25;4895560;29;20040;-90
2023/01/12 01:57:39;;;;;;;10.05;2.40;;;;;;;7.35;100.00;100820.47;4918947;29;20047;-90
2023/01/12 02:00:06;;;;;;;12.43;2.58;;;;;;;7.34;100.00;100818.75;4918508;29;20084;-89
2023/01/12 02:02:34;;;;;;;9.93;2.50;;;;;;;7.34;100.00;100818.75;4918726;29;20036;-90
2023/01/12 02:04:59;;;;;;;7.30;2.40;;;;;;;7.34;100.00;100811.88;4918966;29;20028;-90
2023/01/12 02:07:24;;;;;;;13.53;2.50;;;;;;;7.39;100.00;100810.13;4918344;29;20028;-90
2023/01/12 02:09:50;;;;;;;10.70;2.50;;;;;;;7.34;100.00;100818.75;4918662;29;20385;-91
2023/01/12 02:18:09;;;;;;;10.13;2.42;;;;;;;7.31;100.00;100795.53;4918281;29;20088;-91
2023/01/12 02:21:00;;;;;;;10.18;2.30;;;;;;;7.30;100.00;100804.16;4918092;29;20051;-90
2023/01/12 02:24:16;;;;;;;13.23;2.80;;;;;;;7.30;100.00;100806.72;4899329;29;20047;-92
2023/01/12 02:27:14;;;;;;;12.80;2.90;;;;;;;7.35;100.00;100787.78;4896447;29;20051;-90
2023/01/12 02:30:07;;;;;;;14.07;2.80;;;;;;;7.33;100.00;100791.22;4886356;29;20048;-91
2023/01/12 02:32:47;;;;;;;14.32;2.83;;;;;;;7.34;100.00;100780.03;4899505;29;20041;-92
2023/01/12 02:35:34;;;;;;;15.13;2.90;;;;;;;7.34;100.00;100777.44;4899244;29;20037;-90
2023/01/12 02:38:11;;;;;;;;;;;;;;;7.36;100.00;100778.28;4899682;29;20033;-89
2023/01/12 02:40:51;;;;;;;8.48;2.47;;;;;;;7.36;100.00;100762.81;4906691;29;19961;-90
2023/01/12 02:43:28;;;;;;;11.85;2.45;;;;;;;7.34;100.00;100757.66;4917999;29;20051;-90
2023/01/12 02:46:00;;;;;;;8.60;2.28;;;;;;;7.34;100.00;100768.00;4918177;29;20389;-90
2023/01/12 02:48:37;;;;;;;10.63;2.55;;;;;;;7.37;100.00;100760.25;4917654;29;20024;-90
2023/01/12 02:51:20;;;;;;;10.73;2.75;;;;;;;7.39;100.00;100760.22;4918369;29;20055;-91
2023/01/12 02:53:50;;;;;;;9.82;2.47;;;;;;;7.40;100.00;100741.28;4917903;29;20032;-91
2023/01/12 02:56:23;;;;;;;9.32;2.47;;;;;;;7.43;100.00;100751.56;4930719;29;20403;-92
2023/01/12 02:58:54;;;;;;;9.45;2.30;;;;;;;7.42;100.00;100747.31;4937007;29;20066;-90
2023/01/12 03:01:23;;;;;;;9.05;2.55;;;;;;;7.40;100.00;100733.53;4936675;29;20027;-89
2023/01/12 03:03:50;;;;;;;13.23;2.60;;;;;;;7.41;100.00;100725.78;4925565;29;20048;-89
2023/01/12 03:06:17;;;;;;;12.48;3.03;;;;;;;7.42;100.00;100727.50;4917034;29;20036;-90
2023/01/12 03:08:43;;;;;;;16.25;3.30;;;;;;;7.44;100.00;100708.56;4918127;29;20509;-90
2023/01/12 03:11:22;;;;;;;8.10;2.53;;;;;;;7.44;100.00;100719.72;4927453;29;20032;-90
2023/01/12 03:13:53;;;;;;;7.50;2.38;;;;;;;7.48;100.00;100707.69;4936833;29;20040;-90
2023/01/12 03:16:21;;;;;;;6.80;2.10;;;;;;;7.44;100.00;100703.41;4936591;29;20078;-90
2023/01/12 03:19:17;;;;;;;11.02;2.55;;;;;;;7.46;100.00;100689.59;4936429;29;20063;-90
2023/01/12 03:21:54;;;;;;;8.33;2.30;;;;;;;7.48;100.00;100679.28;4936723;29;20038;-90
2023/01/12 03:24:38;;;;;;;10.45;2.20;;;;;;;7.49;100.00;100676.69;4942162;29;20059;-89
2023/01/12 03:27:13;;;;;;;12.45;3.28;;;;;;;7.48;100.00;100664.63;4938139;29;20028;-89
2023/01/12 03:29:55;;;;;;;9.95;2.50;;;;;;;7.46;100.00;100663.78;4905008;29;20414;-89
2023/01/12 03:32:21;;;;;;;12.18;2.20;;;;;;;7.48;100.00;100658.63;4904545;29;20068;-89
2023/01/12 03:34:47;;;;;;;11.98;2.50;;;;;;;7.47;100.00;100654.31;4904965;29;20025;-90
2023/01/12 03:37:56;;;;;;;11.70;2.60;;;;;;;7.46;100.00;100656.03;4905138;29;20021;-90
2023/01/12 03:40:35;;;;;;;7.90;2.22;;;;;;;7.48;100.00;100659.47;4897527;29;20477;-90
2023/01/12 03:43:29;;;;;;;9.38;2.17;;;;;;;7.46;100.00;100661.19;4904992;29;20047;-88
2023/01/12 03:46:06;;;;;;;8.40;2.20;;;;;;;7.46;100.00;100657.78;4903460;29;20128;-90
2023/01/12 03:48:43;;;;;;;13.40;2.10;;;;;;;7.46;100.00;100639.69;4904982;29;20020;-90
2023/01/12 03:51:14;;;;;;;7.68;2.20;;;;;;;7.47;100.00;100626.75;4904464;29;20041;-89
2023/01/12 03:53:43;;;;;;;9.18;2.22;;;;;;;7.52;100.00;100601.78;4904906;29;20479;-89
2023/01/12 03:56:11;;;;;;;7.47;2.10;;;;;;;7.47;100.00;100595.78;4904148;29;20063;-89
2023/01/12 03:58:36;;;;;;;6.32;2.00;;;;;;;7.48;100.00;100597.50;4922701;29;20098;-89
2023/01/12 04:01:03;;;;;;;6.73;1.90;;;;;;;7.48;100.00;100574.25;4923733;29;20525;-90
2023/01/12 04:03:28;;;;;;;8.60;2.22;;;;;;;7.47;100.00;100594.94;4923283;29;20034;-90
2023/01/12 04:05:59;;;;;;;8.77;2.13;;;;;;;7.51;100.00;100574.25;4923675;29;20028;-89
2023/01/12 04:08:26;;;;;;;8.65;2.00;;;;;;;7.46;100.00;100564.81;4923040;29;20032;-89
2023/01/12 04:12:08;;;;;;;5.60;2.00;;;;;;;7.47;100.00;100564.78;4923704;29;20034;-89
2023/01/12 04:13:45;;;;;;;8.35;2.15;;;;;;;7.45;100.00;100556.19;4923034;29;20339;-89
2023/01/12 04:16:11;;;;;;;6.93;2.03;;;;;;;7.48;100.00;100551.03;4923190;29;20137;-89
2023/01/12 04:18:36;;;;;;;9.47;2.47;;;;;;;7.51;100.00;100539.81;4922777;29;20497;-89
2023/01/12 04:21:01;;;;;;;9.05;1.92;;;;;;;7.48;100.00;100520.03;4930195;29;20480;-89
2023/01/12 04:23:27;;;;;;;8.15;2.03;;;;;;;7.50;100.00;100523.47;4942161;29;20031;-89
2023/01/12 04:25:52;;;;;;;6.60;2.10;;;;;;;7.50;100.00;100527.75;4942429;29;20480;-90
2023/01/12 04:28:17;;;;;;;11.47;2.30;;;;;;;7.54;100.00;100514.81;4942167;29;20426;-89
2023/01/12 04:30:43;;;;;;;9.35;2.20;;;;;;;7.50;100.00;100517.44;4942453;29;20111;-89
2023/01/12 04:33:09;;;;;;;8.98;2.13;;;;;;;7.54;100.00;100496.72;4942299;29;20360;-89
2023/01/12 04:35:35;;;;;;;9.88;2.10;;;;;;;7.55;100.00;100487.28;4936444;29;20051;-89
2023/01/12 04:38:06;;;;;;;9.65;2.30;;;;;;;7.53;100.00;100491.59;4919458;29;20078;-88
2023/01/12 04:40:32;;;;;;;10.50;2.60;;;;;;;7.53;100.00;100484.72;4920107;29;20366;-89
2023/01/12 04:43:00;;;;;;;9.20;2.53;;;;;;;7.48;100.00;100488.19;4919630;29;20071;-88
2023/01/12 04:45:36;;;;;;;11.65;2.33;;;;;;;7.48;100.00;100470.13;4919725;29;20024;-89
2023/01/12 04:48:07;;;;;;;11.20;2.30;;;;;;;7.50;100.00;100458.91;4919878;29;20080;-89
2023/01/12 04:50:32;;;;;;;9.80;2.10;;;;;;;7.53;100.00;100448.56;4920112;29;20047;-87
2023/01/12 04:53:00;;;;;;;7.43;2.13;;;;;;;7.50;100.00;100451.16;4919971;29;20028;-88
2023/01/12 04:55:26;;;;;;;7.97;2.10;;;;;;;7.49;100.00;100449.44;4919548;29;20038;-88
2023/01/12 04:57:51;;;;;;;6.70;2.20;;;;;;;7.49;100.00;100448.56;4919791;29;20115;-89
2023/01/12 05:00:17;;;;;;;6.53;1.80;;;;;;;7.49;100.00;100425.34;4920106;29;20038;-88
2023/01/12 05:02:42;;;;;;;5.10;2.00;;;;;;;7.47;100.00;100440.00;4919903;29;20042;-88
2023/01/12 05:05:08;;;;;;;9.00;2.10;;;;;;;7.50;100.00;100439.97;4918910;29;20103;-87
2023/01/12 05:10:21;;;;;;;6.60;2.03;;;;;;;7.50;100.00;100434.78;4919292;29;20072;-89
2023/01/12 05:10:21;;;;;;;9.13;1.90;;;;;;;7.47;100.00;100425.34;4919177;29;20064;-88
2023/01/12 05:12:47;;;;;;;9.40;2.10;;;;;;;7.47;100.00;100403.84;4919127;29;20032;-90
2023/01/12 05:15:12;;;;;;;11.15;2.35;;;;;;;7.53;100.00;100425.31;4918843;29;20020;-88
2023/01/12 05:17:37;;;;;;;8.20;1.90;;;;;;;7.50;100.00;100446.00;4918873;29;20075;-87
2023/01/12 05:20:03;;;;;;;8.18;1.98;;;;;;;7.49;100.00;100446.00;4918548;29;20091;-89
2023/01/12 05:22:30;;;;;;;8.37;1.97;;;;;;;7.46;100.00;100446.88;4918815;29;20067;-88
2023/01/12 05:24:55;;;;;;;13.23;2.33;;;;;;;7.48;100.00;100454.63;4918997;29;20036;-88
2023/01/12 05:27:20;;;;;;;10.87;2.30;;;;;;;7.46;100.00;100435.72;4917590;29;20485;-88
2023/01/12 05:29:46;;;;;;;12.27;2.03;;;;;;;7.62;100.00;100457.94;4918816;29;20062;-88
2023/01/12 05:32:11;;;;;;;8.10;2.20;;;;;;;7.50;100.00;100430.50;4918689;29;20024;-88
2023/01/12 05:34:36;;;;;;;9.43;1.88;;;;;;;7.49;100.00;100426.22;4918684;29;20164;-89
2023/01/12 05:37:02;;;;;;;9.80;2.10;;;;;;;7.50;100.00;100415.00;4919070;29;20020;-89
2023/01/12 05:39:27;;;;;;;6.37;1.87;;;;;;;7.50;100.00;100425.34;4918624;29;20039;-89
2023/01/12 05:44:36;;;;;;;7.32;1.90;;;;;;;7.49;100.00;100410.72;4918544;29;20039;-88
2023/01/12 05:47:01;;;;;;;9.53;2.10;;;;;;;7.48;100.00;100419.31;4930414;29;20031;-88
2023/01/12 05:49:27;;;;;;;6.28;1.80;;;;;;;7.48;100.00;100416.75;4927359;29;20076;-87
2023/01/12 05:51:52;;;;;;;6.97;2.00;;;;;;;7.50;100.00;100404.69;4918477;29;20028;-89
2023/01/12 05:54:17;;;;;;;8.77;1.80;;;;;;;7.48;100.00;100421.91;4917388;29;20095;-88
2023/01/12 05:56:43;;;;;;;4.37;1.70;;;;;;;7.51;100.00;100413.28;4918490;29;20024;-88
2023/01/12 05:59:09;;;;;;;5.67;1.60;;;;;;;7.48;100.00;100403.84;4918025;29;20469;-88
2023/01/12 06:01:35;;;;;;;7.07;2.15;;;;;;;7.50;100.00;100393.47;4918521;29;20068;-88
2023/01/12 06:04:00;;;;;;;5.23;1.57;;;;;;;7.48;100.00;100415.91;4918790;29;20060;-89
2023/01/12 06:06:29;;;;;;;5.93;1.60;;;;;;;7.48;100.00;100403.84;4919522;29;20103;-88
2023/01/12 06:08:56;;;;;;;7.07;1.77;;;;;;;7.48;100.00;100403.84;4916860;29;20485;-88
2023/01/12 06:14:06;;;;;;;8.32;1.63;;;;;;;7.52;100.00;100396.91;4918262;29;20046;-88
2023/01/12 06:16:32;;;;;;;6.50;1.55;;;;;;;7.53;100.00;100414.13;4917122;29;20027;-88
2023/01/12 06:18:57;;;;;;;4.28;1.42;;;;;;;7.53;100.00;100408.94;4917444;29;20048;-88
2023/01/12 06:21:24;;;;;;;4.38;1.58;;;;;;;7.56;100.00;100399.44;4917888;29;20032;-88
2023/01/12 06:23:49;;;;;;;5.07;1.80;;;;;;;7.57;100.00;100393.41;4917945;29;20020;-89
2023/01/12 06:26:14;;;;;;;6.60;1.80;;;;;;;7.63;100.00;100409.72;4917712;29;20035;-88
2023/01/12 06:28:41;;;;;;;4.57;1.73;;;;;;;7.61;100.00;100401.97;4918328;29;20035;-89
2023/01/12 06:31:09;;;;;;;6.72;1.50;;;;;;;7.63;100.00;100420.06;4916976;29;20032;-88
2023/01/12 06:33:34;;;;;;;4.10;1.20;;;;;;;7.63;100.00;100407.97;4918131;29;20023;-88
2023/01/12 06:36:00;;;;;;;4.40;1.50;;;;;;;7.68;100.00;100410.53;4917127;29;20042;-89
2023/01/12 06:38:27;;;;;;;6.05;1.95;;;;;;;7.72;100.00;100404.47;4931168;29;20047;-89
2023/01/12 06:40:52;;;;;;;5.70;1.40;;;;;;;7.70;100.00;100411.38;4936245;29;20031;-88
2023/01/12 06:43:18;;;;;;;3.73;1.50;;;;;;;7.71;100.00;100405.34;4936082;29;20440;-87
2023/01/12 06:45:44;;;;;;;7.63;1.80;;;;;;;7.73;100.00;100401.00;4936943;29;20032;-88
2023/01/12 06:48:10;;;;;;;1.90;1.27;;;;;;;7.73;100.00;100406.16;4929352;29;20083;-87
2023/01/12 06:50:36;;;;;;;6.13;1.53;;;;;;;7.75;100.00;100412.19;4916814;29;20032;-89
2023/01/12 06:53:03;;;;;;;3.37;1.20;;;;;;;7.75;100.00;100401.84;4917623;29;20043;-89
2023/01/12 06:55:29;;;;;;;3.67;1.30;;;;;;;7.75;100.00;100417.34;4931030;29;20048;-88
2023/01/12 06:57:54;;;;;;;3.97;1.40;;;;;;;7.76;100.00;100403.56;4935976;29;20028;-89
2023/01/12 07:00:20;;;;;;;3.77;1.30;;;;;;;7.76;100.00;100415.63;4936530;29;20042;-88
2023/01/12 07:02:50;;;;;;;4.97;1.37;;;;;;;7.79;100.00;100408.69;4936581;29;20186;-89
2023/01/12 07:05:15;;;;;;;4.25;1.20;;;;;;;7.79;100.00;100406.09;4936019;29;20283;-89
2023/01/12 07:07:42;;;;;;;2.57;1.23;;;;;;;7.79;100.00;100403.50;4936884;29;20020;-88
2023/01/12 07:10:09;;;;;;;2.03;1.08;;;;;;;7.80;100.00;100399.22;4936161;29;20031;-88
2023/01/12 07:12:34;;;;;;;2.83;1.38;;;;;;;7.79;100.00;100405.25;4937481;29;20035;-90
2023/01/12 07:14:59;;;;;;;1.20;1.00;;;;;;;7.81;100.00;100406.94;4936741;29;20034;-90
2023/01/12 07:17:25;;;;;;;3.30;1.15;;;;;;;7.82;100.00;100408.66;4921374;29;20505;-91
2023/01/12 07:19:50;;;;;;;1.95;1.20;;;;;;;7.82;100.00;100408.66;4916680;29;20143;-88
2023/01/12 07:22:15;;;;;;;1.70;1.20;;;;;;;7.83;100.00;100412.94;4916687;29;20122;-88
2023/01/12 07:24:40;;;;;;;4.13;1.30;;;;;;;7.85;100.00;100405.19;4916770;29;20115;-89
2023/01/12 07:27:06;;;;;;;3.40;1.20;;;;;;;7.83;100.00;100412.06;4916614;29;20068;-88
2023/01/12 07:29:31;;;;;;;3.23;1.33;;;;;;;7.86;100.00;100406.88;4917168;29;20032;-88
2023/01/12 07:31:56;;;;;;;3.25;1.20;;;;;;;7.87;100.00;100419.81;4917573;29;20039;-90
2023/01/12 07:34:22;;;;;;;3.92;1.13;;;;;;;7.89;100.00;100418.03;4917189;29;20060;-91
2023/01/12 07:36:49;;;;;;;3.27;1.30;;;;;;;7.89;100.00;100427.53;4917754;29;20024;-92
2023/01/12 07:39:14;;;;;;;4.80;1.25;;;;;;;7.96;100.00;100423.16;4917235;29;20501;-91
2023/01/12 07:44:23;;;;;;;2.17;1.10;;;;;;;7.99;100.00;100443.81;4917307;29;20080;-91
2023/01/12 07:46:48;;;;;;;4.07;1.43;;;;;;;7.97;100.00;100436.03;4917505;29;20466;-91
2023/01/12 07:49:14;;;;;;;4.35;1.23;;;;;;;7.96;100.00;100438.66;4916727;29;20060;-90
2023/01/12 07:51:39;;;;;;;2.07;1.13;;;;;;;7.96;100.00;100438.66;4917629;29;20024;-90
2023/01/12 07:54:05;;;;;;;3.10;1.13;;;;;;;8.01;100.00;100435.16;4917258;29;20028;-90
2023/01/12 07:56:30;;;;;;;3.10;1.33;;;;;;;7.99;100.00;100439.47;4917066;29;20472;-90
2023/01/12 07:58:55;;;;;;;3.57;1.47;;;;;;;8.02;100.00;100442.03;4917524;29;20036;-90
2023/01/12 08:01:20;;;;;;;3.35;1.30;;;;;;;8.01;100.00;100450.66;4916711;29;20020;-91
2023/01/12 08:03:46;;;;;;;4.03;1.35;;;;;;;8.02;100.00;100439.44;4918791;29;20124;-90
2023/01/12 08:06:12;;;;;;;5.33;1.53;;;;;;;8.04;100.00;100439.41;4917964;29;20491;-92
2023/01/12 08:08:37;;;;;;;2.60;1.20;;;;;;;8.04;100.00;100450.63;4916780;29;20024;-91
2023/01/12 08:11:08;;;;;;;4.18;1.23;;;;;;;8.03;100.00;100446.34;4920127;29;20035;-91
2023/01/12 08:13:37;;;;;;;2.78;1.40;;;;;;;8.11;100.00;100455.72;4920754;29;20028;-92
2023/01/12 08:16:18;;;;;;;2.13;1.30;;;;;;;8.12;100.00;100460.03;4920925;29;20032;-92
2023/01/12 08:18:56;;;;;;;3.15;1.00;;;;;;;8.11;100.00;100463.47;4920529;29;20573;-92
2023/01/12 08:21:27;;;;;;;2.00;1.15;;;;;;;8.11;100.00;100463.47;4920745;29;20032;-91
2023/01/12 08:23:57;;;;;;;2.42;1.15;;;;;;;8.13;100.00;100470.31;4920544;29;20068;-92
2023/01/12 08:26:29;;;;;;;2.45;1.20;;;;;;;8.19;100.00;100466.81;4920108;29;20482;-92
2023/01/12 08:29:01;;;;;;;4.57;1.42;;;;;;;8.17;100.00;100466.84;4920820;29;20039;-93
2023/01/12 08:31:27;;;;;;;2.67;1.15;;;;;;;8.17;100.00;100466.84;4920130;29;20087;-93
2023/01/12 08:33:54;;;;;;;3.77;1.40;;;;;;;8.17;100.00;100474.59;4920167;29;20123;-93
2023/01/12 08:36:21;;;;;;;1.70;1.10;;;;;;;8.17;100.00;100474.59;4920544;29;20080;-92
2023/01/12 08:38:46;;;;;;;1.95;1.17;;;;;;;8.17;100.00;100469.44;4920418;29;20036;-92
2023/01/12 08:44:01;;;;;;;4.80;1.50;;;;;;;8.26;100.00;100471.06;4920087;29;20195;-92
2023/01/12 08:46:29;;;;;;;2.88;1.65;;;;;;;8.25;100.00;100478.81;4920737;29;20028;-91
2023/01/12 08:48:54;;;;;;;3.45;1.40;;;;;;;8.26;100.00;100480.53;4920558;29;20040;-91
2023/01/12 08:51:19;;;;;;;3.77;1.40;;;;;;;8.28;100.00;100492.56;4919507;29;20396;-92
2023/01/12 08:53:45;;;;;;;2.17;1.37;;;;;;;8.27;100.00;100480.53;4920252;29;20028;-94
2023/01/12 08:56:23;;;;;;;1.50;1.07;;;;;;;8.31;100.00;100496.88;4918984;29;20032;-93
2023/01/12 08:58:48;;;;;;;1.48;1.20;;;;;;;8.30;100.00;100493.41;4919929;29;20055;-93
2023/01/12 09:01:15;;;;;;;1.67;1.30;;;;;;;8.34;100.00;100499.38;4920108;29;20024;-93
2023/01/12 09:03:43;;;;;;;1.50;1.40;;;;;;;8.35;100.00;100499.41;4926399;29;20042;-92
2023/01/12 09:06:20;;;;;;;3.90;1.60;;;;;;;8.36;100.00;100505.41;4938883;29;20507;-92
2023/01/12 09:08:46;;;;;;;1.90;1.25;;;;;;;8.38;100.00;100508.84;4933676;29;20043;-91
2023/01/12 09:11:14;;;;;;;1.67;1.30;;;;;;;8.42;100.00;100515.69;4928119;29;20028;-92
2023/01/12 09:13:39;;;;;;;2.17;1.08;;;;;;;8.39;100.00;100514.88;4921972;29;20027;-92
2023/01/12 09:16:13;;;;;;;1.47;1.20;;;;;;;8.40;100.00;100522.59;4938854;29;20067;-92
2023/01/12 09:18:39;;;;;;;2.17;1.27;;;;;;;8.42;100.00;100518.28;4938337;29;20584;-92
2023/01/12 09:21:10;;;;;;;2.85;1.35;;;;;;;8.44;100.00;100524.28;4940419;29;20038;-91
2023/01/12 09:23:36;;;;;;;1.40;1.17;;;;;;;8.46;100.00;100522.53;4942203;29;20078;-92
2023/01/12 09:26:03;;;;;;;1.43;0.90;;;;;;;8.45;100.00;100532.91;4938658;29;20024;-94
2023/01/12 09:28:29;;;;;;;1.45;1.10;;;;;;;8.46;100.00;100522.53;4938579;29;20280;-93
2023/01/12 09:30:54;;;;;;;1.63;1.40;;;;;;;8.53;100.00;100513.00;4938620;29;20527;-91
2023/01/12 09:33:20;;;;;;;1.63;1.25;;;;;;;8.49;100.00;100525.13;4937978;29;20028;-93
2023/01/12 09:35:46;;;;;;;1.55;1.20;;;;;;;8.52;100.00;100519.03;4938276;29;20582;-92
2023/01/12 09:38:11;;;;;;;2.07;1.20;;;;;;;8.52;100.00;100531.97;4921971;29;20032;-93
2023/01/12 09:40:41;;;;;;;1.63;1.23;;;;;;;8.53;100.00;100527.69;4919254;29;20400;-93
2023/01/12 09:48:40;;;;;;;1.10;0.80;;;;;;;8.57;100.00;100537.97;4919651;29;20087;-96
2023/01/12 09:51:22;;;;;;;1.27;0.93;;;;;;;8.58;100.00;100541.38;4919093;29;20466;-93
2023/01/12 09:53:48;;;;;;;1.92;1.08;;;;;;;8.58;100.00;100539.69;4919245;29;20050;-95
2023/01/12 09:56:25;;;;;;;1.03;0.93;;;;;;;8.64;100.00;100549.94;4918782;29;20466;-93
2023/01/12 09:59:06;;;;;;;3.00;0.80;;;;;;;8.63;100.00;100543.03;4918844;29;20060;-93
2023/01/12 10:01:32;;;;;;;1.52;0.95;;;;;;;8.65;100.00;100545.63;4919042;29;20434;-93
2023/01/12 10:04:00;;;;;;;1.80;1.00;;;;;;;8.65;100.00;100559.41;4919110;29;20060;-93
2023/01/12 10:06:26;;;;;;;0.90;0.70;;;;;;;8.65;100.00;100551.66;4918639;29;20300;-93
2023/01/12 10:09:15;;;;;;;0.63;0.52;;;;;;;8.70;100.00;100556.78;4918974;29;20107;-93
2023/01/12 10:11:50;;;;;;;1.58;0.82;;;;;;;8.70;100.00;100556.78;4919075;29;20068;-93
2023/01/12 10:14:30;;;;;;;1.13;0.80;;;;;;;8.70;100.00;100556.78;4918291;29;20032;-92
2023/01/12 10:17:19;;;;;;;1.08;0.93;;;;;;;8.71;100.00;100562.81;4918867;29;20028;-94
2023/01/12 10:20:26;;;;;;;1.48;0.95;;;;;;;8.76;100.00;100556.72;4899459;29;20056;-93
2023/01/12 10:23:07;;;;;;;0.57;0.57;;;;;;;8.73;100.00;100563.63;4899490;29;20037;-92
2023/01/12 10:25:42;;;;;;;1.08;0.73;;;;;;;8.74;100.00;100561.03;4899361;29;20025;-92
2023/01/12 10:28:28;;;;;;;1.45;0.57;;;;;;;8.76;100.00;100553.25;4899755;29;20056;-94
2023/01/12 10:30:55;;;;;;;2.10;0.77;;;;;;;8.77;100.00;100567.91;4899170;29;20040;-93
2023/01/12 10:33:22;;;;;;;2.35;0.75;;;;;;;8.81;100.00;100559.25;4898615;29;20043;-92
2023/01/12 10:35:48;;;;;;;1.02;0.68;;;;;;;8.78;100.00;100565.28;4899481;29;20044;-93
2023/01/12 10:38:21;;;;;;;1.05;0.88;;;;;;;8.81;100.00;100549.72;4899069;29;20091;-93
2023/01/12 10:41:18;;;;;;;0.68;0.68;;;;;;;8.79;100.00;100556.66;4903558;29;20028;-92
2023/01/12 10:44:04;;;;;;;1.08;0.73;;;;;;;8.83;100.00;100564.38;4918315;29;20033;-92
2023/01/12 10:46:31;;;;;;;0.60;0.60;;;;;;;8.81;100.00;100557.50;4918215;29;20039;-91
2023/01/12 10:49:22;;;;;;;1.25;0.77;;;;;;;8.84;100.00;100551.41;4918063;29;20381;-93
2023/01/12 10:51:49;;;;;;;1.02;0.70;;;;;;;8.89;100.00;100547.06;4918299;29;20053;-92
2023/01/12 10:54:18;;;;;;;0.65;0.57;;;;;;;8.91;100.00;100550.47;4917718;29;20032;-94
2023/01/12 10:57:12;;;;;;;0.80;0.80;;;;;;;8.89;100.00;100551.38;4918147;29;20028;-92
2023/01/12 10:59:39;;;;;;;1.92;0.90;;;;;;;8.90;100.00;100559.13;4917370;29;20075;-92
2023/01/12 11:02:04;;;;;;;0.82;0.70;;;;;;;8.91;100.00;100547.03;4917625;29;20031;-91
2023/01/12 11:04:35;;;;;;;1.35;0.60;;;;;;;8.90;100.00;100551.34;4918074;29;20032;-92
2023/01/12 11:07:12;;;;;;;0.68;0.60;;;;;;;8.89;100.00;100557.41;4918058;29;20076;-93
2023/01/12 11:09:40;;;;;;;1.02;0.60;;;;;;;8.93;100.00;100555.63;4918053;29;20102;-92
2023/01/12 11:12:35;;;;;;;0.50;0.50;;;;;;;8.95;100.00;100551.28;4918077;29;20032;-90
2023/01/12 11:15:14;;;;;;;0.85;0.68;;;;;;;9.06;100.00;100554.59;4911015;29;20048;-91
2023/01/12 11:18:07;;;;;;;1.40;0.52;;;;;;;9.02;100.00;100552.91;4916201;29;20032;-90
2023/01/12 11:20:49;;;;;;;0.50;0.50;;;;;;;8.96;100.00;100547.81;4917336;29;20036;-90
2023/01/12 11:23:38;;;;;;;0.60;0.60;;;;;;;8.98;100.00;100551.25;4917974;29;20025;-94
2023/01/12 11:26:14;;;;;;;0.60;0.60;;;;;;;8.97;100.00;100546.94;4917360;29;20103;-91
2023/01/12 11:28:46;;;;;;;;;;;;;;;8.98;100.00;100547.78;4918018;29;20471;-91
2023/01/12 11:31:29;;;;;;;1.05;0.75;;;;;;;9.00;100.00;100546.03;4917058;29;19911;-92
2023/01/12 11:34:04;;;;;;;0.98;0.88;;;;;;;9.00;100.00;100546.91;4917495;29;20039;-92
2023/01/12 11:36:36;;;;;;;0.70;0.70;;;;;;;9.01;100.00;100548.59;4917786;29;20040;-92
2023/01/12 11:39:09;;;;;;;0.60;0.60;;;;;;;9.04;100.00;100550.31;4917247;29;20031;-91
2023/01/12 11:45:20;;;;;;;0.73;0.70;;;;;;;9.00;100.00;100548.63;4901022;29;20046;-91
2023/01/12 11:47:59;;;;;;;1.25;0.93;;;;;;;9.03;100.00;100530.47;4904668;29;20036;-92
2023/01/12 11:50:32;;;;;;;0.50;0.50;;;;;;;9.01;100.00;100546.00;4921286;29;20039;-91
2023/01/12 11:52:57;;;;;;;0.80;0.80;;;;;;;9.01;100.00;100542.59;4920631;29;20385;-91
2023/01/12 11:55:45;;;;;;;0.60;0.60;;;;;;;9.02;100.00;100544.31;4920911;29;20035;-90
2023/01/12 11:58:15;;;;;;;0.70;0.70;;;;;;;9.01;100.00;100538.25;4921041;29;20485;-91
2023/01/12 12:01:05;;;;;;;1.00;0.90;;;;;;;9.02;100.00;100534.78;4920713;29;20534;-91
2023/01/12 12:03:56;;;;;;;1.35;0.80;;;;;;;9.02;100.00;100536.53;4921194;29;20034;-90
2023/01/12 12:06:29;;;;;;;1.58;0.80;;;;;;;9.05;100.00;100526.16;4920809;29;20039;-89
2023/01/12 12:09:02;;;;;;;1.70;1.00;;;;;;;9.02;100.00;100514.09;4920298;29;20024;-90
2023/01/12 12:11:49;;;;;;;2.58;1.08;;;;;;;9.08;100.00;100518.31;4921222;29;20483;-91
2023/01/12 12:14:34;;;;;;;1.02;1.00;;;;;;;9.07;100.00;100514.00;4920195;29;20043;-90
2023/01/12 12:17:09;;;;;;;0.80;0.80;;;;;;;9.07;100.00;100514.00;4920216;29;20031;-91